AirNav   Pilot Hours Calculator
 
 1592 users online  

09S Sullivan Lake State Airport
Metaline Falls, Washington, USA

GOING TO METALINE FALLS?


FAA INFORMATION EFFECTIVE 20 MAY 2021

Location

FAA Identifier: 09S
Lat/Long: 48-50-27.2230N 117-17-02.3490W
48-50.453717N 117-17.039150W
48.8408953,-117.2839858
(estimated)
Elevation: 2614 ft. / 797 m (estimated)
Variation: 20E (1985)
From city: 3 miles SE of METALINE FALLS, WA
Time zone: UTC -7 (UTC -8 during Standard Time)
Zip code: 99153

Airport Operations

Airport use: Open to the public
Activation date: 12/1938
Control tower: no
ARTCC: SEATTLE CENTER
FSS: SEATTLE FLIGHT SERVICE STATION
NOTAMs facility: SEA (NOTAM-D service available)
Attendance: UNATNDD
Wind indicator: yes, 2 WIND SOCKS, ONE ON EACH RWY END
Segmented circle: no

Airport Communications

CTAF: 122.9

Nearby radio navigation aids

NDB name  Hdg/Dist  Freq  Var  ID
IONE012/9.437921EION .. --- -.

Airport Services

Airframe service: NONE
Powerplant service: NONE
Bottled oxygen: NONE
Bulk oxygen: NONE

Runway Information

Runway 16/34

Dimensions: 1765 x 100 ft. / 538 x 30 m
Surface: turf, in good condition
RUNWAY 16  RUNWAY 34
Latitude: 48-50.598817N48-50.308617N
Longitude: 117-17.039150W117-17.039167W
Elevation: 2621.0 ft.2603.0 ft.
Traffic pattern: leftleft
Obstructions: 200 ft. trees, 1700 ft. from runway, 45 ft. both sides of centerline, 8:1 slope to clear15 ft. sign, 205 ft. from runway, 146 ft. right of centerline, 13:1 slope to clear

Airport Ownership and Management from official FAA records

Ownership: Publicly-owned
Owner: WSDOT AVIATION DIVISION
7702 TERMINAL STREET SW
TUMWATER, WA 98501-7264
Phone (800) 552-0666
Manager: G. PAUL WOLF
7702 TERMINAL STREET SW
TUMWATER, WA 98501-7264
Phone (360) 618-2477

Airport Operational Statistics

Aircraft operations: avg 25/month *
100% transient general aviation
* for 12-month period ending 31 December 2017

Additional Remarks

ARPT CLSD 1 OCT TO 1 JUN EXC FOR APPROVED MIL & PUBLIC SAFETY/LAW ENFORCEMENT HELI OPS.
FOR CD CTC SEATTLE ARTCC AT 253-351-3694.
VEHICLES, PEDESTRIANS, AND ANIMALS ON AND INVOF ARPT.
TREES BOTH SIDES IN TRANSITION SFCS.
GROUND DROPS RAPIDLY BEYOND RY 16/34 ENDS.
WATCH FOR GROUND SQUIRREL HOLES IN RY.
CTC WA STATE AVIATION DIVISION 360-709-8015 OR 1-800-552-0666 WA AREA FOR FACILITY INFO PRIOR TO USE.
RY MARKED WITH REFLECTORS DURING DATES ARPT IS OPEN.
FOR ACFT ACCIDENTS/INCIDENTS CTC WA STATE EMERGENCY OPERATIONS CENTER 800-258-5990.

Instrument Procedures

There are no published instrument procedures at 09S.

Some nearby airports with instrument procedures:

65S - Boundary County Airport (40 nm E)
KSZT - Sandpoint Airport (43 nm SE)
KDEW - Deer Park Airport (53 nm S)
KCOE - Coeur d'Alene Airport - Pappy Boyington Field (67 nm S)
KSFF - Felts Field Airport (69 nm S)
 
Loc | Ops | Rwys | IFR | FBO | Links
Com | Nav | Svcs | Stats | Notes
Area around 09S (Sullivan Lake State Airport)
 
Road maps at: MapQuest Bing Google
 
Aerial photo
WARNING: Photo may not be current or correct
Aerial photo of 09S (Sullivan Lake State Airport)
Photo taken 28-Jun-2013
looking northwest.

Do you have a better or more recent aerial photo of Sullivan Lake State Airport that you would like to share? If so, please send us your photo.

 
Sectional chart

 
Airport distance calculator
Flying to Sullivan Lake State Airport? Find the distance to fly.

From to 09S

Sunrise and sunset
Times for 15-Jun-2021
 Local
(UTC-7)
 Zulu
(UTC)
Morning civil twilight04:0311:03
Sunrise04:4611:46
Sunset20:5303:53
Evening civil twilight21:3604:36

Current date and time
Zulu (UTC)  15-Jun-2021 19:07:57
Local (UTC-7)  15-Jun-2021 12:07:57
 
METAR
K63S 
30nm SW 
151405Z AUTO 00000KT 10SM SCT005 SCT018 OVC095 15/14 A3003 RMK A01
CYCG 
30nm NW 
151800Z 18004KT 100V210 15SM VCSH FEW015 SCT030 BKN070TCU 20/12 A2999 RMK CF1CU3TCU3 CF TR SH NW SLP152 DENSITY ALT 2600FT
CWJR 
34nm NE 
151800Z AUTO 21002KT 18/14 RMK AO1 0005 SLP162 T01820138 50041
CWNM 
40nm N 
151800Z AUTO 27005KT 18/13 RMK AO1 0000 SLP154 T01780131 50084
K65S 
40nm E 
151855Z AUTO 20008KT 170V240 10SM FEW075 OVC110 18/12 A3002 RMK AO2
KSZT 
43nm SE 
151855Z AUTO 22004KT 10SM OVC024 15/12 A3007 RMK AO2
TAF
CYCG 
30nm NW 
151438Z 1515/1603 04005KT P6SM FEW025 BKN080 TEMPO 1515/1516 P6SM -SHRA FM151600 35008KT P6SM BKN060 FM152000 35008KT P6SM BKN060 TEMPO 1520/1603 P6SM -SHRA PROB30 1520/1603 VRB15G25KT 5SM TSRA BKN050CB RMK NXT FCST BY 151900Z
NOTAMs
Click for the latest NOTAMs
NOTAMs are issued by the DoD/FAA and will open in a separate window not controlled by AirNav.

 

 
 

Would you like to see your business listed on this page?

 If your business provides an interesting product or service to pilots, flight crews, aircraft, or users of the Sullivan Lake State Airport, you should consider listing it here.  To start the listing process, click on the button below
 
Add a business
 

Other Pages about Sullivan Lake State Airport

www.wsdot.wa.gov/...
skychickadventures.com/travel-images.asp?id=85
 
Update a link
 
Copyright © AirNav, LLC. All rights reserved. Privacy Policy  Contact